Alpha, California Weather observations

Data are for observation ending at time listed.
 Day   Time    Ave.   Ave.  Ave.  Vector   Max.   Stn.    Total    Solar   Ave.   Snow 
  of    of     Air    Rel.  Wind   Wind    Wind   Baro.  Precip.   Rad.    Soil   Depth
Year   Day     Temp.  Hum.  Speed  Dir.    Gust   Pres.                    Temp.       
2014   (PST)    F      %     mph   deg.    mph     mb.     in.     W/m2     F      in. 
---------------------------------------------------------------------------------------  
 354    0:00   29.4    96    5.5   151      9.4   785.9    0.00       0    999.0  172.5
 354    0:10   29.3    96    5.8   140     10.0   785.6    0.00       0    999.0  165.3
 354    0:20   29.1    96    5.0   151      8.4   785.5    0.00       0    999.0  171.1
 354    0:30   29.0    96    1.3   232      3.9   785.8    0.00       0    999.0  169.7
 354    0:40   29.0    95    1.6   190      5.6   785.8    0.00       0    999.0  171.1
 354    0:50   29.0    95    4.1   162      6.6   785.6    0.00       0    999.0  172.5
 354    1:00   29.0    95    2.0   194      7.4   785.4    0.00       0    999.0  114.0
 354    1:10   29.2    96    5.0   155     13.7   785.3    0.00       0    999.0   55.7
 354    1:20   29.7    96    5.3   153     13.8   785.5    0.00       0    999.0  115.3
 354    1:30   29.9    96    3.1   183      7.5   785.7    0.00       0    999.0  129.1
 354    1:40   30.1    96    3.7   179      8.2   785.6    0.00       0    999.0  156.5
 354    1:50   30.1    96    3.0   191      7.4   785.8    0.00       0    999.0  126.3
 354    2:00   30.2    96    2.8   185      8.9   785.6    0.00       0    999.0  167.5
 354    2:10   30.2    96    2.2   210      5.9   785.6    0.00       0    999.0  156.6
 354    2:20   30.3    96    2.6   223      7.2   785.5    0.00       0    999.0  147.7
 354    2:30   30.4    96    2.8   238      6.1   785.4    0.00       0    999.0  157.4
 354    2:40   30.5    96    3.0   249      6.9   785.2    0.00       0    999.0  157.1
 354    2:50   30.6    96    3.7   237      9.1   785.1    0.00       0    999.0  157.8
 354    3:00   30.6    96    3.4   249      7.8   785.0    0.00       0    999.0  130.6
 354    3:10   30.4    96    3.2   245      8.9   784.9    0.00       0    999.0   54.5
 354    3:20   30.4    96    3.6   263      8.3   785.1    0.00       0    999.0   68.3
 354    3:30   30.4    96    2.6   253      6.9   785.0    0.00       0    999.0  146.0
 354    3:40   30.4    96    3.0   220      6.4   784.7    0.00       0    999.0  121.0
 354    3:50   30.3    96    3.6   230      7.1   784.9    0.00       0    999.0  158.6
 354    4:00   30.2    96    3.2   241      7.7   785.1    0.00       0    999.0  160.4
 354    4:10   30.0    96    3.7   252      7.7   785.1    0.00       0    999.0   83.7
 354    4:20   29.8    96    3.5   225      8.1   785.0    0.00       0    999.0  157.2
 354    4:30   29.6    96    4.2   229     10.1   785.0    0.00       0    999.0   59.5
 354    4:40   29.6    96    3.6   227      8.6   784.9    0.00       0    999.0   57.0
 354    4:50   29.6    96    3.4   237      7.2   784.8    0.00       0    999.0   29.7
 354    5:00   29.5    96    3.3   238      8.2   785.0    0.00       0    999.0   55.4
 354    5:10   29.5    96    3.4   226      6.9   785.1    0.00       0    999.0  119.7
 354    5:20   29.5    96    3.0   230      7.4   785.1    0.00       0    999.0  144.3
 354    5:30   29.5    96    3.1   234      5.4   785.1    0.00       0    999.0  135.2
 354    5:40   29.6    96    2.8   251      5.8   785.2    0.00       0    999.0  158.1
 354    5:50   29.6    96    3.4   227      7.9   785.2    0.00       0    999.0  158.1
 354    6:00   29.5    96    3.5   230      7.6   785.1    0.00       0    999.0  159.8
 354    6:10   29.5    96    2.8   230     11.0   785.2    0.00       0    999.0  158.1
 354    6:20   29.4    96    2.8   252      6.2   785.4    0.00       0    999.0  158.2
 354    6:30   29.4    96    3.0   235      7.2   785.4    0.00       0    999.0  159.8
 354    6:40   29.5    96    3.5   228      7.3   785.5    0.00       0    999.0  161.0
 354    6:50   29.5    96    3.5   216     10.0   785.5    0.00       0    999.0  163.2
 354    7:00   29.4    96    3.2   220      9.1   785.6    0.00       0    999.0  162.1
 354    7:10   29.3    96    3.8   209      9.7   785.6    0.00       0    999.0  161.6
 354    7:20   29.3    96    2.9   228      7.8   785.6    0.00       0    999.0  158.9
 354    7:30   29.4    96    3.1   251      6.2   785.7    0.00       0    999.0  159.7
 354    7:40   29.5    96    2.4   268      7.6   786.0    0.00       1    999.0  159.8
 354    7:50   29.8    96    2.2   250      6.8   786.0    0.00       1    999.0  158.1
 354    8:00   30.2    96    2.1   248      5.6   785.9    0.00       2    999.0  159.3
 354    8:10   30.5    96    2.4   247      4.5   786.1    0.00       3    999.0  158.6
 354    8:20   30.7    96    2.4   238      5.3   786.3    0.00       3    999.0  145.0
 354    8:30   31.0    96    2.3   247      6.4   786.3    0.00       3    999.0   34.0
 354    8:40   31.1    96    2.2   256      6.6   786.5    0.00       3    999.0   34.0
 354    8:50   31.1    96    2.7   261      6.4   786.6    0.00       5    999.0   34.0
 354    9:00   31.2    96    2.7   267      6.6   786.7    0.00       4    999.0   34.2
 354    9:10   31.2    96    2.6   259      5.1   786.8    0.00       5    999.0   34.3
 354    9:20   31.2    96    2.5   260      5.3   786.9    0.00       5    999.0   34.2
 354    9:30   31.2    96    2.5   270      4.9   787.0    0.00       5    999.0   34.0
 354    9:40   31.3    96    2.5   274      5.1   787.2    0.00       8    999.0   33.5
 354    9:50   31.3    96    2.4   270      4.5   787.3    0.00       7    999.0   33.5
 354   10:00   31.3    96    1.5   286      3.8   787.4    0.00       5    999.0   33.8
 354   10:10   31.2    96    1.1   309      2.6   787.4    0.00       6    999.0   34.0
 354   10:20   31.2    96    1.1   288      4.5   787.6    0.00       5    999.0   34.2
 354   10:30   31.2    96    2.4   274      5.5   787.6    0.00       6    999.0   34.2
 354   10:40   31.2    96    2.5   279      7.2   787.6    0.00      10    999.0   34.0
 354   10:50   31.3    96    2.3   285      6.4   787.8    0.00      10    999.0   34.0
 354   11:00   31.3    96    2.0   263      5.6   787.5    0.00      15    999.0   33.1
 354   11:10   31.4    96    2.9   257      5.8   787.5    0.00      18    999.0   31.9
 354   11:20   31.4    96    2.5   257      5.4   787.4    0.00      14    999.0   33.2
 354   11:30   31.4    96    2.2   251      4.9   787.2    0.00      13    999.0   32.0
 354   11:40   31.5    96    1.6   252      4.4   787.1    0.00      13    999.0   31.2
 354   11:50   31.4    96    2.5   250      6.9   787.0    0.00      12    999.0   31.1
 354   12:00   31.5    96    2.0   226      5.0   786.8    0.00      14    999.0   31.4
 354   12:10   31.6    96    2.0   202      5.3   786.5    0.00      15    999.0   30.4
 354   12:20   31.7    96    2.9   207      8.0   786.3    0.00      18    999.0   29.5
 354   12:30   31.7    96    2.2   243      6.1   786.7    0.00      15    999.0  100.8
 354   12:40   31.6    96    2.7   264      5.4   786.8    0.00      13    999.0   31.2
 354   12:50   31.6    96    3.3   246      8.0   786.8    0.00      11    999.0   32.7
 354   13:00   31.6    96    2.5   259      6.3   786.4    0.00      12    999.0   34.6
 354   13:10   31.7    96    3.1   248      8.7   786.6    0.00      12    999.0   34.8
 354   13:20   31.6    96    2.1   282      5.3   787.0    0.00       9    999.0   34.8
 354   13:30   31.6    96    2.0   292      4.9   787.0    0.00      11    999.0   34.8
 354   13:40   31.6    96    2.1   284      5.5   787.2    0.00      11    999.0   34.8
 354   13:50   31.6    96    2.1   287      6.2   787.2    0.00      12    999.0   33.9
 354   14:00   31.7    96    2.3   278      5.6   787.1    0.00      12    999.0   33.5
 354   14:10   31.5    96    1.7   313      4.2   787.2    0.00      10    999.0   34.1
 354   14:20   31.5    96    1.9   313      4.9   787.2    0.00      13    999.0   34.1
 354   14:30   31.4    96    2.1   282      5.8   787.1    0.00      11    999.0   33.4
 354   14:40   31.4    96    1.7   303      7.0   787.2    0.00       9    999.0   33.3
 354   14:50   31.4    96    1.6   279      4.5   787.2    0.00       8    999.0   33.9
 354   15:00   31.4    96    1.4   290      5.0   787.2    0.00       5    999.0   34.3
 354   15:10   31.5    96    1.9   225      5.0   787.1    0.00       6    999.0   34.5
 354   15:20   31.4    96    1.5   271      5.0   787.4    0.00       4    999.0   34.5
 354   15:30   31.5    96    1.6   272      3.9   787.5    0.00       4    999.0   34.0
 354   15:40   31.4    96    1.7   279      5.3   787.6    0.00       2    999.0   34.0
 354   15:50   31.4    96    1.5   248      4.5   787.5    0.00       3    999.0   34.3
 354   16:00   31.4    96    1.9   222      4.9   787.4    0.00       3    999.0   34.5
 354   16:10   31.4    96    2.1   226      4.2   787.7    0.00       2    999.0   34.7
 354   16:20   31.4    96    1.8   207      4.7   787.8    0.00       1    999.0   35.0
 354   16:30   31.4    96    2.0   214      5.8   787.9    0.00       1    999.0   35.0
 354   16:40   31.3    96    2.2   204      4.9   787.9    0.00       0    999.0   34.7
 354   16:50   31.3    96    2.1   200      6.3   788.0    0.00       0    999.0   34.3
 354   17:00   31.3    96    2.0   210      4.2   788.1    0.00       0    999.0   34.6
 354   17:10   31.3    96    1.8   215      4.4   788.2    0.00       0    999.0   34.6
 354   17:20   31.4    96    2.1   205      4.6   788.3    0.00       0    999.0   34.7
 354   17:30   31.3    96    2.6   188      6.5   788.2    0.00       0    999.0   34.8
 354   17:40   31.3    96    2.9   177      7.1   788.3    0.00       0    999.0   34.5
 354   17:50   31.4    96    2.7   178      5.0   788.3    0.00       0    999.0   34.2
 354   18:00   31.4    96    2.9   180      5.0   788.3    0.00       0    999.0   33.0
 354   18:10   31.4    96    2.7   184      4.5   788.4    0.00       0    999.0   32.9
 354   18:20   31.4    96    2.6   180      4.9   788.4    0.00       0    999.0   33.8
 354   18:30   31.5    96    3.8   166      7.5   788.4    0.00       0    999.0   34.7
 354   18:40   31.4    96    2.7   193      5.1   788.5    0.00       0    999.0   35.0
 354   18:50   31.5    96    3.0   206      6.8   788.4    0.00       0    999.0   35.0
 354   19:00   31.6    96    3.3   212      7.1   788.5    0.00       0    999.0   34.8
 354   19:10   31.6    96    3.0   206      6.2   788.6    0.00       0    999.0   34.1
 354   19:20   31.6    96    2.2   242      6.5   788.8    0.00       0    999.0   34.2
 354   19:30   31.6    96    2.2   238      5.2   788.9    0.00       0    999.0   34.1
 354   19:40   31.7    96    2.7   220      5.7   788.9    0.00       0    999.0   34.1
 354   19:50   31.7    96    2.5   221      5.1   788.9    0.00       0    999.0   33.6
 354   20:00   31.8    96    2.5   227      5.1   789.0    0.00       0    999.0   32.9
 354   20:10   31.8    96    2.1   228      4.5   789.1    0.00       0    999.0   34.1
 354   20:20   31.8    96    1.8   255      3.9   789.2    0.00       0    999.0   34.2
 354   20:30   31.9    96    2.1   257      4.4   789.3    0.00       0    999.0   34.2
 354   20:40   31.9    96    2.3   257      4.6   789.3    0.00       0    999.0   34.2
 354   20:50   32.0    96    2.2   253      4.6   789.5    0.00       0    999.0   34.1
 354   21:00   32.2    96    2.1   278      4.5   789.7    0.00       0    999.0   33.5
 354   21:10   32.3    96    1.9   254      4.7   789.6    0.00       0    999.0   33.3
 354   21:20   32.6    96    2.1   248      5.3   789.6    0.00       0    999.0   33.4
 354   21:30   33.0    96    2.6   219      4.6   789.6    0.00       0    999.0   33.6
 354   21:40   33.0    96    1.9   258      4.1   789.8    0.00       0    999.0   33.7
 354   21:50   32.9    96    2.1   271      5.3   789.9    0.00       0    999.0   33.6
 354   22:00   33.1    96    2.8   271      6.4   790.0    0.00       0    999.0   33.4
 354   22:10   32.8    96    2.1   278      4.0   790.1    0.00       0    999.0   33.2
 354   22:20   33.1    96    2.8   260      5.3   790.1    0.00       0    999.0   33.1
 354   22:30   33.4    96    2.5   242      5.1   790.0    0.00       0    999.0   32.8
 354   22:40   33.4    96    2.4   267      4.8   790.1    0.00       0    999.0   33.0
 354   22:50   33.4    96    2.7   264      9.5   790.2    0.00       0    999.0   33.1
 354   23:00   33.4    96    2.1   261      4.2   790.2    0.00       0    999.0   33.1
 354   23:10   33.5    96    2.2   249      4.8   790.2    0.00       0    999.0   33.1
 354   23:20   33.7    96    2.3   252      5.4   790.2    0.00       0    999.0   33.0
 354   23:30   33.6    96    2.2   255      4.7   790.3    0.00       0    999.0   33.0

Return to Alpha graphs page.


Western Regional Climate Center,wrcc@dri.edu